createdAt,value
2023-04-15T00:00:15.586Z,22.1740
2023-04-15T00:01:17.934Z,21.9946
2023-04-15T00:02:20.536Z,21.5043
2023-04-15T00:03:23.030Z,21.6708
2023-04-15T00:04:25.042Z,23.3645
2023-04-15T00:05:27.252Z,17.7762
2023-04-15T00:06:29.584Z,17.6342
2023-04-15T00:07:31.933Z,22.5108
2023-04-15T00:08:34.257Z,22.9075
2023-04-15T00:09:36.577Z,20.1143
2023-04-15T00:10:38.917Z,17.6329
2023-04-15T00:11:41.251Z,17.9340
2023-04-15T00:12:43.586Z,17.3484
2023-04-15T00:13:45.905Z,17.0977
2023-04-15T00:14:48.232Z,17.4685
2023-04-15T00:15:50.576Z,15.5016
2023-04-15T00:16:52.912Z,16.5016
2023-04-15T00:17:55.259Z,16.6134
2023-04-15T00:18:57.656Z,15.6503
2023-04-15T00:19:59.886Z,16.4195
2023-04-15T00:21:02.277Z,18.2269
2023-04-15T00:22:04.550Z,26.0013
2023-04-15T00:23:06.898Z,28.6494
2023-04-15T00:24:09.237Z,35.3285
2023-04-15T00:25:11.582Z,35.5029
2023-04-15T00:26:13.917Z,24.5608
2023-04-15T00:27:16.240Z,21.7624
2023-04-15T00:28:18.577Z,25.3945
2023-04-15T00:29:20.907Z,21.4080
2023-04-15T00:30:23.233Z,16.8944
2023-04-15T00:31:25.690Z,16.0121
2023-04-15T00:32:27.937Z,15.5119
2023-04-15T00:33:30.237Z,13.0246
2023-04-15T00:34:32.584Z,14.3367
2023-04-15T00:35:34.907Z,15.1125
2023-04-15T00:36:37.253Z,14.6805
2023-04-15T00:37:39.575Z,15.2405
2023-04-15T00:38:41.914Z,16.1795
2023-04-15T00:39:44.242Z,15.8457
2023-04-15T00:40:46.590Z,15.4785
2023-04-15T00:41:48.928Z,15.7113
2023-04-15T00:42:51.241Z,13.9796
2023-04-15T00:43:53.573Z,14.3811
2023-04-15T00:44:55.905Z,14.2631
2023-04-15T00:45:58.327Z,43.1185
2023-04-15T00:47:00.570Z,19.2604
2023-04-15T00:48:02.918Z,16.5510
2023-04-15T00:49:05.234Z,17.5587
2023-04-15T00:50:07.557Z,18.6066
2023-04-15T00:51:09.923Z,15.1435
2023-04-15T00:52:12.233Z,13.9726
2023-04-15T00:53:14.544Z,14.1686
2023-04-15T00:54:16.873Z,14.6767
2023-04-15T00:55:19.217Z,12.3742
2023-04-15T00:56:21.534Z,12.1768
2023-04-15T00:57:23.890Z,12.4997
2023-04-15T00:58:26.203Z,11.7413
2023-04-15T00:59:28.537Z,14.3258
2023-04-15T01:00:30.865Z,13.6582
2023-04-15T01:01:33.242Z,12.4296
2023-04-15T01:02:35.642Z,11.6650
2023-04-15T01:03:38.118Z,12.6146
2023-04-15T01:04:40.194Z,12.9763
2023-04-15T01:05:42.521Z,11.2568
2023-04-15T01:06:44.861Z,13.2510
2023-04-15T01:07:47.207Z,12.2123
2023-04-15T01:08:49.517Z,11.7527
2023-04-15T01:09:51.848Z,12.3763
2023-04-15T01:10:54.176Z,14.4780
2023-04-15T01:11:56.510Z,13.0779
2023-04-15T01:12:58.855Z,12.7327
2023-04-15T01:14:01.178Z,13.3734
2023-04-15T01:15:03.505Z,13.0003
2023-04-15T01:16:05.874Z,11.9259
2023-04-15T01:17:08.176Z,13.1633
2023-04-15T01:18:10.507Z,12.1739
2023-04-15T01:19:12.832Z,11.2151
2023-04-15T01:20:15.174Z,11.2828
2023-04-15T01:21:17.496Z,9.1277
2023-04-15T01:22:19.835Z,10.9833
2023-04-15T01:23:22.162Z,12.0010
2023-04-15T01:24:24.485Z,12.3983
2023-04-15T01:25:26.830Z,10.8866
2023-04-15T01:26:29.156Z,11.4434
2023-04-15T01:27:31.478Z,13.1796
2023-04-15T01:28:33.810Z,10.8096
2023-04-15T01:29:36.145Z,11.9276
2023-04-15T01:30:38.504Z,11.6082
2023-04-15T01:31:40.841Z,11.2720
2023-04-15T01:32:43.184Z,10.9114
2023-04-15T01:33:45.480Z,11.2575
2023-04-15T01:34:47.804Z,12.3252
2023-04-15T01:35:50.159Z,10.1088
2023-04-15T01:36:52.495Z,11.2661
2023-04-15T01:37:54.805Z,11.0279
2023-04-15T01:38:57.142Z,9.8656
2023-04-15T01:39:59.473Z,11.4242
2023-04-15T01:41:01.866Z,10.4115
2023-04-15T01:42:04.148Z,11.3687
2023-04-15T01:43:06.477Z,10.4658
2023-04-15T01:44:08.817Z,11.2449
2023-04-15T01:45:11.144Z,12.0785
2023-04-15T01:46:13.517Z,10.2055
2023-04-15T01:47:15.806Z,12.0944
2023-04-15T01:48:18.142Z,12.4770
2023-04-15T01:49:20.497Z,10.1333
2023-04-15T01:50:22.813Z,11.5333
2023-04-15T01:51:25.139Z,10.3433
2023-04-15T01:52:27.474Z,8.8986
2023-04-15T01:53:29.808Z,10.8530
2023-04-15T01:54:32.159Z,12.2407
2023-04-15T01:55:34.474Z,11.8657
2023-04-15T01:56:36.828Z,11.4184
2023-04-15T01:57:39.146Z,10.6176
2023-04-15T01:58:41.473Z,11.2655
2023-04-15T01:59:43.814Z,11.5655
2023-04-15T02:00:46.154Z,11.2023
2023-04-15T02:01:48.511Z,10.8740
2023-04-15T02:02:50.856Z,10.5780
2023-04-15T02:03:53.181Z,10.3713
2023-04-15T02:04:55.479Z,10.3221
2023-04-15T02:05:57.817Z,11.9531
2023-04-15T02:07:00.271Z,11.2716
2023-04-15T02:08:02.562Z,11.6530
2023-04-15T02:09:04.893Z,9.1420
2023-04-15T02:10:07.236Z,8.4800
2023-04-15T02:11:09.567Z,8.7493
2023-04-15T02:12:11.927Z,9.4072
2023-04-15T02:13:14.255Z,12.3782
2023-04-15T02:14:16.579Z,11.5501
2023-04-15T02:15:18.917Z,12.0607
2023-04-15T02:16:21.333Z,10.5987
2023-04-15T02:17:23.608Z,10.7859
2023-04-15T02:18:25.937Z,10.9214
2023-04-15T02:19:28.248Z,9.7303
2023-04-15T02:20:30.584Z,10.0179
2023-04-15T02:21:32.924Z,11.6136
2023-04-15T02:22:35.286Z,10.1631
2023-04-15T02:23:37.593Z,8.7071
2023-04-15T02:24:39.925Z,10.3330
2023-04-15T02:25:42.267Z,10.7574
2023-04-15T02:26:44.612Z,9.9081
2023-04-15T02:27:46.974Z,10.0608
2023-04-15T02:28:49.265Z,11.4272
2023-04-15T02:29:51.602Z,10.8642
2023-04-15T02:30:53.946Z,9.8379
2023-04-15T02:31:56.342Z,9.2748
2023-04-15T02:32:58.667Z,10.2674
2023-04-15T02:34:00.944Z,9.4663
2023-04-15T02:35:03.357Z,9.2513
2023-04-15T02:36:05.614Z,8.7139
2023-04-15T02:37:07.952Z,9.2297
2023-04-15T02:38:10.296Z,8.3743
2023-04-15T02:39:12.633Z,8.9380
2023-04-15T02:40:14.970Z,9.0424
2023-04-15T02:41:17.305Z,8.5110
2023-04-15T02:42:19.640Z,8.3821
2023-04-15T02:43:22.092Z,8.7897
2023-04-15T02:44:24.310Z,8.6451
2023-04-15T02:45:26.658Z,9.7161
2023-04-15T02:46:29.095Z,9.4333
2023-04-15T02:47:31.359Z,10.0422
2023-04-15T02:48:33.696Z,9.1199
2023-04-15T02:49:35.993Z,8.5771
2023-04-15T02:50:38.698Z,8.7688
2023-04-15T02:51:40.673Z,8.3392
2023-04-15T02:52:43.008Z,7.9944
2023-04-15T02:53:45.343Z,8.9448
2023-04-15T02:54:47.680Z,8.3228
2023-04-15T02:55:50.039Z,9.7422
2023-04-15T02:56:52.360Z,8.6244
2023-04-15T02:57:54.697Z,8.3703
2023-04-15T02:58:57.037Z,8.9245
2023-04-15T02:59:59.360Z,9.4003
2023-04-15T03:01:01.738Z,8.2994
2023-04-15T03:02:04.069Z,8.9249
2023-04-15T03:03:06.724Z,8.4236
2023-04-15T03:04:08.840Z,8.5846
2023-04-15T03:05:11.055Z,9.2600
2023-04-15T03:06:13.429Z,8.3875
2023-04-15T03:07:15.741Z,8.6770
2023-04-15T03:08:18.070Z,8.7692
2023-04-15T03:09:20.414Z,8.7219
2023-04-15T03:10:22.762Z,8.7519
2023-04-15T03:11:25.097Z,9.1112
2023-04-15T03:12:27.420Z,8.7782
2023-04-15T03:13:29.749Z,6.9832
2023-04-15T03:14:32.117Z,7.7914
2023-04-15T03:15:34.431Z,9.0622
2023-04-15T03:16:36.776Z,9.1600
2023-04-15T03:17:39.134Z,7.4164
2023-04-15T03:18:41.419Z,7.2626
2023-04-15T03:19:43.762Z,9.3711
2023-04-15T03:20:46.128Z,9.1171
2023-04-15T03:21:48.448Z,7.5414
2023-04-15T03:22:50.772Z,8.1365
2023-04-15T03:23:53.206Z,8.6679
2023-04-15T03:24:55.439Z,8.5472
2023-04-15T03:25:57.782Z,8.7424
2023-04-15T03:27:00.139Z,8.2395
2023-04-15T03:28:02.446Z,8.0545
2023-04-15T03:29:04.787Z,8.6096
2023-04-15T03:30:07.125Z,9.5854
2023-04-15T03:31:09.488Z,8.8396
2023-04-15T03:32:11.818Z,8.9015
2023-04-15T03:33:14.129Z,9.0116
2023-04-15T03:34:16.484Z,10.0156
2023-04-15T03:35:18.814Z,10.1431
2023-04-15T03:36:21.160Z,8.2883
2023-04-15T03:37:23.486Z,10.3491
2023-04-15T03:38:25.814Z,9.6714
2023-04-15T03:39:28.146Z,9.8596
2023-04-15T03:40:30.492Z,9.6601
2023-04-15T03:41:32.864Z,8.0688
2023-04-15T03:42:35.171Z,8.4612
2023-04-15T03:43:37.496Z,10.9098
2023-04-15T03:44:39.836Z,10.1831
2023-04-15T03:45:42.191Z,9.8512
2023-04-15T03:46:44.598Z,8.6304
2023-04-15T03:47:46.859Z,9.9428
2023-04-15T03:48:49.193Z,9.3525
2023-04-15T03:49:51.519Z,8.9167
2023-04-15T03:50:53.863Z,9.5324
2023-04-15T03:51:56.192Z,10.1969
2023-04-15T03:52:58.534Z,11.6995
2023-04-15T03:54:00.856Z,11.5231
2023-04-15T03:55:03.211Z,11.1037
2023-04-15T03:56:05.527Z,11.5074
2023-04-15T03:57:07.864Z,12.1016
2023-04-15T03:58:10.208Z,11.5057
2023-04-15T03:59:12.527Z,10.2217
2023-04-15T04:00:14.860Z,10.1031
2023-04-15T04:01:17.201Z,10.0926
2023-04-15T04:02:19.582Z,9.5433
2023-04-15T04:03:22.584Z,10.3449
2023-04-15T04:04:24.331Z,10.5419
2023-04-15T04:05:26.525Z,9.8127
2023-04-15T04:06:28.863Z,10.4599
2023-04-15T04:07:31.220Z,9.8313
2023-04-15T04:08:33.646Z,10.4312
2023-04-15T04:09:35.876Z,12.9467
2023-04-15T04:10:38.245Z,10.7803
2023-04-15T04:11:40.572Z,11.3079
2023-04-15T04:12:42.892Z,9.2221
2023-04-15T04:13:45.245Z,7.6249
2023-04-15T04:14:47.559Z,8.6487
2023-04-15T04:15:49.968Z,8.7838
2023-04-15T04:16:52.251Z,9.2216
2023-04-15T04:17:54.620Z,8.3801
2023-04-15T04:18:56.905Z,8.6291
2023-04-15T04:19:59.243Z,8.0733
2023-04-15T04:21:01.585Z,8.1416
2023-04-15T04:22:03.912Z,9.6653
2023-04-15T04:23:06.237Z,9.0387
2023-04-15T04:24:08.588Z,8.6026
2023-04-15T04:25:10.921Z,9.1825
2023-04-15T04:26:13.291Z,9.2454
2023-04-15T04:27:15.584Z,8.9345
2023-04-15T04:28:17.933Z,8.4095
2023-04-15T04:29:20.263Z,9.3153
2023-04-15T04:30:22.597Z,9.5118
2023-04-15T04:31:24.972Z,9.9253
2023-04-15T04:32:27.306Z,8.6859
2023-04-15T04:33:29.621Z,9.0965
2023-04-15T04:34:31.937Z,8.4219
2023-04-15T04:35:34.277Z,9.2806
2023-04-15T04:36:36.622Z,9.5712
2023-04-15T04:37:38.953Z,8.3670
2023-04-15T04:38:41.293Z,9.8091
2023-04-15T04:39:43.625Z,9.1855
2023-04-15T04:40:45.953Z,9.3875
2023-04-15T04:41:48.294Z,10.7435
2023-04-15T04:42:50.625Z,9.8690
2023-04-15T04:43:52.972Z,11.1720
2023-04-15T04:44:55.293Z,13.0053
2023-04-15T04:45:57.674Z,15.6585
2023-04-15T04:46:59.985Z,12.8235
2023-04-15T04:48:02.317Z,14.4713
2023-04-15T04:49:04.919Z,14.3622
2023-04-15T04:50:06.972Z,15.5994
2023-04-15T04:51:09.308Z,14.8961
2023-04-15T04:52:11.682Z,14.0939
2023-04-15T04:53:14.005Z,14.3943
2023-04-15T04:54:16.320Z,13.8801
2023-04-15T04:55:18.648Z,11.7728
2023-04-15T04:56:20.984Z,12.4090
2023-04-15T04:57:23.313Z,12.3092
2023-04-15T04:58:25.649Z,10.8979
2023-04-15T04:59:27.984Z,11.5191
2023-04-15T05:00:30.325Z,12.1903
2023-04-15T05:01:32.701Z,11.3500
2023-04-15T05:02:35.072Z,9.8489
2023-04-15T05:03:37.406Z,11.3244
2023-04-15T05:04:39.665Z,9.5285
2023-04-15T05:05:42.006Z,10.2189
2023-04-15T05:06:44.337Z,11.1368
2023-04-15T05:07:46.669Z,11.7050
2023-04-15T05:08:49.016Z,10.8393
2023-04-15T05:09:51.345Z,10.7348
2023-04-15T05:10:53.700Z,8.7129
2023-04-15T05:11:56.016Z,10.3399
2023-04-15T05:12:58.350Z,8.5461
2023-04-15T05:14:00.686Z,8.6113
2023-04-15T05:15:03.029Z,9.6051
2023-04-15T05:16:05.448Z,8.2092
2023-04-15T05:17:07.705Z,8.9760
2023-04-15T05:18:10.038Z,8.7568
2023-04-15T05:19:12.374Z,8.5528
2023-04-15T05:20:14.708Z,8.8705
2023-04-15T05:21:17.059Z,8.3665
2023-04-15T05:22:19.388Z,8.7804
2023-04-15T05:23:21.721Z,9.8408
2023-04-15T05:24:24.066Z,8.7844
2023-04-15T05:25:26.394Z,9.9907
2023-04-15T05:26:28.739Z,10.6305
2023-04-15T05:27:31.074Z,9.3390
2023-04-15T05:28:33.407Z,10.3908
2023-04-15T05:29:35.741Z,9.6558
2023-04-15T05:30:38.189Z,9.7381
2023-04-15T05:31:40.590Z,10.9052
2023-04-15T05:32:42.781Z,9.3801
2023-04-15T05:33:45.084Z,9.5927
2023-04-15T05:34:47.421Z,9.4035
2023-04-15T05:35:49.754Z,8.9648
2023-04-15T05:36:52.098Z,8.5234
2023-04-15T05:37:54.436Z,9.3763
2023-04-15T05:38:56.755Z,10.0576
2023-04-15T05:39:59.095Z,10.0440
2023-04-15T05:41:01.428Z,9.8412
2023-04-15T05:42:03.782Z,11.4455
2023-04-15T05:43:06.114Z,10.1665
2023-04-15T05:44:08.440Z,10.2116
2023-04-15T05:45:10.776Z,9.4820
2023-04-15T05:46:13.180Z,9.2372
2023-04-15T05:47:15.553Z,10.5506
2023-04-15T05:48:17.794Z,10.5280
2023-04-15T05:49:20.125Z,9.6364
2023-04-15T05:50:22.467Z,8.5235
2023-04-15T05:51:24.815Z,10.8758
2023-04-15T05:52:27.142Z,9.4069
2023-04-15T05:53:29.483Z,7.8743
2023-04-15T05:54:31.811Z,8.8959
2023-04-15T05:55:34.144Z,9.5059
2023-04-15T05:56:36.493Z,9.2079
2023-04-15T05:57:38.827Z,9.5989
2023-04-15T05:58:41.152Z,10.1612
2023-04-15T05:59:43.485Z,9.3875
2023-04-15T06:00:45.826Z,8.6545
2023-04-15T06:01:48.284Z,10.2939
2023-04-15T06:02:50.654Z,8.8486
2023-04-15T06:03:52.972Z,8.0771
2023-04-15T06:04:55.193Z,8.7594
2023-04-15T06:05:57.516Z,8.5682
2023-04-15T06:06:59.847Z,11.8050
2023-04-15T06:08:02.190Z,11.0052
2023-04-15T06:09:04.702Z,10.8734
2023-04-15T06:10:06.869Z,10.2861
2023-04-15T06:11:09.190Z,8.4711
2023-04-15T06:12:11.622Z,9.4573
2023-04-15T06:13:13.949Z,8.6828
2023-04-15T06:14:16.268Z,8.7937
2023-04-15T06:15:18.602Z,9.7945
2023-04-15T06:16:20.979Z,9.7352
2023-04-15T06:17:23.301Z,10.9264
2023-04-15T06:18:25.615Z,10.7677
2023-04-15T06:19:27.941Z,10.1857
2023-04-15T06:20:30.292Z,9.1890
2023-04-15T06:21:32.607Z,10.8041
2023-04-15T06:22:34.952Z,9.6192
2023-04-15T06:23:37.281Z,10.9495
2023-04-15T06:24:39.709Z,9.8021
2023-04-15T06:25:41.957Z,11.2245
2023-04-15T06:26:44.280Z,10.7298
2023-04-15T06:27:46.625Z,10.0815
2023-04-15T06:28:48.954Z,9.1282
2023-04-15T06:29:51.319Z,10.1033
2023-04-15T06:30:53.617Z,10.5857
2023-04-15T06:31:55.981Z,9.8066
2023-04-15T06:32:58.323Z,11.0598
2023-04-15T06:34:00.626Z,10.2913
2023-04-15T06:35:02.998Z,10.1055
2023-04-15T06:36:05.300Z,10.9494
2023-04-15T06:37:07.637Z,11.6863
2023-04-15T06:38:09.977Z,12.7864
2023-04-15T06:39:12.320Z,10.1054
2023-04-15T06:40:14.681Z,10.0759
2023-04-15T06:41:16.979Z,9.9165
2023-04-15T06:42:19.314Z,10.8650
2023-04-15T06:43:21.649Z,11.5948
2023-04-15T06:44:23.988Z,11.5971
2023-04-15T06:45:26.375Z,10.3870
2023-04-15T06:46:28.670Z,10.2872
2023-04-15T06:47:31.061Z,9.7591
2023-04-15T06:48:33.346Z,10.1057
2023-04-15T06:49:35.684Z,11.6252
2023-04-15T06:50:38.023Z,11.6909
2023-04-15T06:51:40.354Z,9.9308
2023-04-15T06:52:42.696Z,10.3051
2023-04-15T06:53:45.031Z,10.5887
2023-04-15T06:54:47.370Z,11.6379
2023-04-15T06:55:49.726Z,11.8439
2023-04-15T06:56:52.040Z,10.1044
2023-04-15T06:57:54.404Z,12.4496
2023-04-15T06:58:56.716Z,11.7254
2023-04-15T06:59:59.056Z,11.0912
2023-04-15T07:01:01.419Z,9.8499
2023-04-15T07:02:03.758Z,9.3063
2023-04-15T07:03:06.110Z,9.8607
2023-04-15T07:04:08.449Z,10.6292
2023-04-15T07:05:10.754Z,11.1317
2023-04-15T07:06:13.110Z,10.8819
2023-04-15T07:07:15.426Z,11.3100
2023-04-15T07:08:17.760Z,11.4172
2023-04-15T07:09:20.091Z,12.1754
2023-04-15T07:10:23.916Z,12.8954
2023-04-15T07:11:24.880Z,11.2178
2023-04-15T07:12:27.115Z,11.3100
2023-04-15T07:13:29.476Z,10.4038
2023-04-15T07:14:31.788Z,11.3690
2023-04-15T07:15:34.134Z,11.7061
2023-04-15T07:16:36.516Z,10.9874
2023-04-15T07:17:38.840Z,10.8202
2023-04-15T07:18:41.141Z,11.1420
2023-04-15T07:19:43.482Z,11.9029
2023-04-15T07:20:45.821Z,12.1336
2023-04-15T07:21:48.173Z,11.5076
2023-04-15T07:22:50.492Z,11.2816
2023-04-15T07:23:52.862Z,11.9149
2023-04-15T07:24:55.177Z,12.0998
2023-04-15T07:25:57.508Z,11.2780
2023-04-15T07:27:01.021Z,12.5494
2023-04-15T07:28:02.169Z,12.0599
2023-04-15T07:29:04.516Z,13.2077
2023-04-15T07:30:06.855Z,10.9261
2023-04-15T07:31:09.261Z,12.4341
2023-04-15T07:32:11.538Z,11.4755
2023-04-15T07:33:13.863Z,10.0941
2023-04-15T07:34:16.207Z,10.0576
2023-04-15T07:35:18.542Z,12.0160
2023-04-15T07:36:20.888Z,11.5730
2023-04-15T07:37:23.240Z,11.2926
2023-04-15T07:38:25.576Z,11.5459
2023-04-15T07:39:27.912Z,11.3241
2023-04-15T07:40:30.249Z,10.8220
2023-04-15T07:41:32.578Z,11.2663
2023-04-15T07:42:34.954Z,11.0635
2023-04-15T07:43:37.264Z,9.3365
2023-04-15T07:44:39.596Z,10.0786
2023-04-15T07:45:41.935Z,11.5329
2023-04-15T07:46:44.271Z,10.7362
2023-04-15T07:47:46.651Z,12.1464
2023-04-15T07:48:48.941Z,10.0591
2023-04-15T07:49:51.275Z,10.1027
2023-04-15T07:50:53.638Z,11.1949
2023-04-15T07:51:55.968Z,9.6266
2023-04-15T07:52:58.296Z,12.9649
2023-04-15T07:54:00.631Z,11.8332
2023-04-15T07:55:02.966Z,11.0828
2023-04-15T07:56:05.306Z,10.9063
2023-04-15T07:57:07.654Z,11.9265
2023-04-15T07:58:09.982Z,10.2525
2023-04-15T07:59:12.324Z,9.9797
2023-04-15T08:00:14.659Z,11.5245
2023-04-15T08:01:17.000Z,11.3690
2023-04-15T08:02:19.421Z,11.4083
2023-04-15T08:03:21.732Z,12.2271
2023-04-15T08:04:24.123Z,11.5763
2023-04-15T08:05:26.363Z,12.0284
2023-04-15T08:06:28.703Z,12.2364
2023-04-15T08:07:31.032Z,12.5508
2023-04-15T08:08:33.409Z,11.2063
2023-04-15T08:09:35.749Z,11.3483
2023-04-15T08:10:38.046Z,11.3875
2023-04-15T08:11:40.386Z,11.5967
2023-04-15T08:12:42.727Z,10.6223
2023-04-15T08:13:45.059Z,9.9654
2023-04-15T08:14:47.409Z,11.2941
2023-04-15T08:15:49.786Z,10.4153
2023-04-15T08:16:52.080Z,11.1102
2023-04-15T08:17:54.468Z,10.6978
2023-04-15T08:18:56.774Z,12.6298
2023-04-15T08:19:59.119Z,12.0313
2023-04-15T08:21:01.423Z,11.9482
2023-04-15T08:22:03.784Z,11.9875
2023-04-15T08:23:06.103Z,12.3804
2023-04-15T08:24:08.499Z,11.7659
2023-04-15T08:25:10.782Z,12.0582
2023-04-15T08:26:13.131Z,10.8333
2023-04-15T08:27:15.473Z,12.2298
2023-04-15T08:28:17.802Z,11.2317
2023-04-15T08:29:20.144Z,13.7408
2023-04-15T08:30:22.482Z,12.8808
2023-04-15T08:31:24.853Z,11.4025
2023-04-15T08:32:27.184Z,10.7913
2023-04-15T08:33:29.515Z,11.9666
2023-04-15T08:34:31.853Z,13.9535
2023-04-15T08:35:34.169Z,14.2606
2023-04-15T08:36:36.507Z,12.4876
2023-04-15T08:37:38.847Z,12.5661
2023-04-15T08:38:41.179Z,12.9424
2023-04-15T08:39:43.528Z,11.6613
2023-04-15T08:40:45.862Z,12.9646
2023-04-15T08:41:48.194Z,12.4637
2023-04-15T08:42:51.192Z,12.5175
2023-04-15T08:43:52.892Z,13.6806
2023-04-15T08:44:55.215Z,11.5004
2023-04-15T08:45:57.619Z,11.7033
2023-04-15T08:46:59.957Z,13.7354
2023-04-15T08:48:02.381Z,13.4175
2023-04-15T08:49:04.841Z,13.0482
2023-04-15T08:50:06.908Z,13.7290
2023-04-15T08:51:09.263Z,13.7044
2023-04-15T08:52:11.586Z,13.1367
2023-04-15T08:53:13.931Z,15.6147
2023-04-15T08:54:16.269Z,15.1514
2023-04-15T08:55:18.622Z,14.9039
2023-04-15T08:56:21.278Z,16.0615
2023-04-15T08:57:23.287Z,14.7352
2023-04-15T08:58:25.629Z,14.2295
2023-04-15T08:59:27.962Z,12.9293
2023-04-15T09:00:30.452Z,13.1726
2023-04-15T09:01:32.679Z,15.5542
2023-04-15T09:02:35.052Z,15.1489
2023-04-15T09:03:37.481Z,14.5227
2023-04-15T09:04:39.654Z,15.2089
2023-04-15T09:05:41.999Z,14.3521
2023-04-15T09:06:44.390Z,14.2756
2023-04-15T09:07:46.764Z,14.5424
2023-04-15T09:08:49.021Z,15.6003
2023-04-15T09:09:51.364Z,16.1808
2023-04-15T09:10:53.706Z,14.5100
2023-04-15T09:11:56.539Z,14.7629
2023-04-15T09:12:58.389Z,15.6997
2023-04-15T09:14:00.745Z,16.5459
2023-04-15T09:15:03.077Z,12.9610
2023-04-15T09:16:05.434Z,13.3896
2023-04-15T09:17:07.796Z,14.1336
2023-04-15T09:18:10.124Z,14.1225
2023-04-15T09:19:12.420Z,13.4086
2023-04-15T09:20:14.792Z,14.3246
2023-04-15T09:21:17.108Z,14.2424
2023-04-15T09:22:19.466Z,14.0778
2023-04-15T09:23:21.795Z,14.2121
2023-04-15T09:24:24.139Z,13.0622
2023-04-15T09:25:26.478Z,11.3840
2023-04-15T09:26:28.819Z,12.1423
2023-04-15T09:27:31.200Z,12.3200
2023-04-15T09:28:33.501Z,12.0243
2023-04-15T09:29:35.849Z,9.4907
2023-04-15T09:30:38.278Z,11.4134
2023-04-15T09:31:40.550Z,11.5422
2023-04-15T09:32:43.002Z,10.6762
2023-04-15T09:33:45.216Z,11.9321
2023-04-15T09:34:47.551Z,10.1525
2023-04-15T09:35:49.885Z,10.8752
2023-04-15T09:36:52.235Z,15.1915
2023-04-15T09:37:54.573Z,13.2264
2023-04-15T09:38:56.910Z,12.4493
2023-04-15T09:39:59.271Z,11.2733
2023-04-15T09:41:01.599Z,13.0024
2023-04-15T09:42:03.937Z,11.7896
2023-04-15T09:43:06.294Z,11.7912
2023-04-15T09:44:08.622Z,12.0310
2023-04-15T09:45:10.975Z,13.0301
2023-04-15T09:46:13.309Z,12.6477
2023-04-15T09:47:15.655Z,15.9059
2023-04-15T09:48:18.002Z,14.5847
2023-04-15T09:49:20.384Z,14.4578
2023-04-15T09:50:22.681Z,15.4814
2023-04-15T09:51:25.030Z,13.9110
2023-04-15T09:52:27.419Z,14.1877
2023-04-15T09:53:31.249Z,14.3580
2023-04-15T09:54:32.059Z,13.3309
2023-04-15T09:55:34.408Z,13.7808
2023-04-15T09:56:36.747Z,13.9284
2023-04-15T09:57:39.103Z,13.5671
2023-04-15T09:58:41.448Z,11.6036
2023-04-15T09:59:43.775Z,13.7979
2023-04-15T10:00:46.115Z,13.1212
2023-04-15T10:01:48.588Z,12.5977
2023-04-15T10:02:50.920Z,11.8126
2023-04-15T10:03:53.299Z,12.2341
2023-04-15T10:04:55.479Z,13.6778
2023-04-15T10:05:57.821Z,12.2833
2023-04-15T10:07:00.166Z,12.5480
2023-04-15T10:08:02.520Z,10.8853
2023-04-15T10:09:04.862Z,12.1844
2023-04-15T10:10:07.210Z,11.0016
2023-04-15T10:11:09.538Z,10.7436
2023-04-15T10:12:11.866Z,11.4093
2023-04-15T10:13:14.206Z,12.3716
2023-04-15T10:14:16.557Z,12.1458
2023-04-15T10:15:18.887Z,11.7793
2023-04-15T10:16:21.301Z,10.7600
2023-04-15T10:17:23.620Z,13.5616
2023-04-15T10:18:25.979Z,14.5814
2023-04-15T10:19:28.329Z,12.1741
2023-04-15T10:20:30.657Z,10.7629
2023-04-15T10:21:32.987Z,13.0542
2023-04-15T10:22:35.331Z,11.1677
2023-04-15T10:23:37.667Z,10.2833
2023-04-15T10:24:40.019Z,13.5425
2023-04-15T10:25:42.338Z,13.1490
2023-04-15T10:26:44.686Z,14.2308
2023-04-15T10:27:47.022Z,11.7484
2023-04-15T10:28:49.378Z,11.6651
2023-04-15T10:29:51.704Z,13.2632
2023-04-15T10:30:54.062Z,11.7623
2023-04-15T10:31:56.393Z,12.8672
2023-04-15T10:32:58.778Z,12.9498
2023-04-15T10:34:01.390Z,11.9762
2023-04-15T10:35:03.423Z,14.9309
2023-04-15T10:36:05.744Z,14.7263
2023-04-15T10:37:08.071Z,12.2375
2023-04-15T10:38:10.412Z,14.8012
2023-04-15T10:39:12.751Z,13.8919
2023-04-15T10:40:15.109Z,12.7557
2023-04-15T10:41:19.530Z,14.3069
2023-04-15T10:42:19.801Z,14.7018
2023-04-15T10:43:22.110Z,12.6424
2023-04-15T10:44:24.452Z,14.2473
2023-04-15T10:45:26.801Z,14.2669
2023-04-15T10:46:29.188Z,12.3644
2023-04-15T10:47:31.471Z,12.4442
2023-04-15T10:48:33.796Z,12.6345
2023-04-15T10:49:36.146Z,13.1652
2023-04-15T10:50:38.477Z,11.4505
2023-04-15T10:51:40.809Z,13.9142
2023-04-15T10:52:43.152Z,14.1353
2023-04-15T10:53:45.473Z,13.5837
2023-04-15T10:54:47.817Z,11.9286
2023-04-15T10:55:50.174Z,13.1205
2023-04-15T10:56:52.503Z,12.9529
2023-04-15T10:57:54.828Z,14.9412
2023-04-15T10:58:57.163Z,14.7139
2023-04-15T10:59:59.509Z,12.0180
2023-04-15T11:01:01.934Z,12.7048
2023-04-15T11:02:04.332Z,13.6698
2023-04-15T11:03:06.738Z,12.7212
2023-04-15T11:04:09.021Z,14.2647
2023-04-15T11:05:11.181Z,14.0351
2023-04-15T11:06:13.533Z,13.8724
2023-04-15T11:07:15.856Z,13.7670
2023-04-15T11:08:18.194Z,13.0508
2023-04-15T11:09:20.541Z,12.7844
2023-04-15T11:10:22.873Z,13.1946
2023-04-15T11:11:25.345Z,12.2762
2023-04-15T11:12:27.546Z,13.0341
2023-04-15T11:13:29.882Z,12.4797
2023-04-15T11:14:32.214Z,12.9307
2023-04-15T11:15:34.558Z,14.8877
2023-04-15T11:16:36.928Z,15.7549
2023-04-15T11:17:39.256Z,14.0452
2023-04-15T11:18:41.560Z,12.7803
2023-04-15T11:19:43.893Z,13.6582
2023-04-15T11:20:46.228Z,13.6626
2023-04-15T11:21:48.573Z,12.7846
2023-04-15T11:22:50.928Z,12.6958
2023-04-15T11:23:53.242Z,13.6815
2023-04-15T11:24:55.568Z,13.6260
2023-04-15T11:25:57.928Z,15.0337
2023-04-15T11:27:00.239Z,12.5682
2023-04-15T11:28:02.570Z,10.9933
2023-04-15T11:29:05.147Z,11.1981
2023-04-15T11:30:07.241Z,10.3845
2023-04-15T11:31:09.589Z,10.4916
2023-04-15T11:32:12.103Z,9.8959
2023-04-15T11:33:14.261Z,9.9572
2023-04-15T11:34:16.587Z,10.3105
2023-04-15T11:35:18.929Z,10.6681
2023-04-15T11:36:21.268Z,11.2773
2023-04-15T11:37:23.617Z,11.7522
2023-04-15T11:38:25.960Z,11.5628
2023-04-15T11:39:28.276Z,10.1800
2023-04-15T11:40:30.608Z,11.7180
2023-04-15T11:41:32.960Z,11.1212
2023-04-15T11:42:48.757Z,9.3037
2023-04-15T11:43:37.648Z,10.3819
2023-04-15T11:44:39.967Z,10.7538
2023-04-15T11:45:42.336Z,9.1498
2023-04-15T11:46:45.664Z,10.1508
2023-04-15T11:47:47.025Z,10.5482
2023-04-15T11:48:49.318Z,10.1874
2023-04-15T11:49:51.638Z,10.8807
2023-04-15T11:50:53.990Z,9.8883
2023-04-15T11:51:56.331Z,9.9791
2023-04-15T11:52:58.656Z,10.6857
2023-04-15T11:54:01.113Z,11.9248
2023-04-15T11:55:03.344Z,12.9165
2023-04-15T11:56:05.683Z,12.1741
2023-04-15T11:57:08.005Z,12.9880
2023-04-15T11:58:10.356Z,12.3518
2023-04-15T11:59:12.681Z,12.7609
2023-04-15T12:00:15.016Z,12.6120
2023-04-15T12:01:17.372Z,13.9412
2023-04-15T12:02:19.808Z,14.5020
2023-04-15T12:03:22.174Z,14.6347
2023-04-15T12:04:25.872Z,14.0270
2023-04-15T12:05:26.705Z,14.3103
2023-04-15T12:06:29.053Z,16.2349
2023-04-15T12:07:32.166Z,12.7712
2023-04-15T12:08:33.725Z,14.2361
2023-04-15T12:09:36.067Z,13.0115
2023-04-15T12:10:38.396Z,14.3129
2023-04-15T12:11:40.751Z,14.3712
2023-04-15T12:12:43.078Z,12.3724
2023-04-15T12:13:45.412Z,12.6269
2023-04-15T12:14:47.771Z,11.7353
2023-04-15T12:15:50.122Z,13.0194
2023-04-15T12:16:52.585Z,13.5151
2023-04-15T12:17:54.820Z,12.5232
2023-04-15T12:18:57.118Z,11.5361
2023-04-15T12:19:59.507Z,13.7136
2023-04-15T12:21:01.821Z,15.5965
2023-04-15T12:22:04.142Z,14.5867
2023-04-15T12:23:06.485Z,14.0412
2023-04-15T12:24:08.833Z,13.7637
2023-04-15T12:25:11.158Z,14.8785
2023-04-15T12:26:13.491Z,14.7423
2023-04-15T12:27:15.864Z,14.6855
2023-04-15T12:28:18.180Z,14.1971
2023-04-15T12:29:20.499Z,14.5022
2023-04-15T12:30:22.831Z,14.2078
2023-04-15T12:31:25.231Z,14.6866
2023-04-15T12:32:27.549Z,13.4570
2023-04-15T12:33:29.844Z,14.0163
2023-04-15T12:34:32.184Z,15.4523
2023-04-15T12:35:34.533Z,15.0574
2023-04-15T12:36:36.853Z,16.4369
2023-04-15T12:37:39.225Z,15.7068
2023-04-15T12:38:41.546Z,15.3169
2023-04-15T12:39:43.884Z,15.7253